ADDS METAR Data INFO
IDs: Format: Raw Decoded Include TAF

Data at: 0322 UTC 16 Dec 2017

KDPA 160252Z 21011KT 10SM OVC055 01/M06 A2989 RMK AO2 SLP130 T00061056 58004
KDPA 160152Z 21008KT 10SM OVC047 01/M05 A2990 RMK AO2 SLP132 T00061050
KDPA 160052Z 21007KT 10SM OVC037 01/M05 A2990 RMK AO2 SLP134 T00061050
KDPA 160008Z 24008KT 10SM BKN030 OVC039 01/M05 A2990 RMK AO2 T00061050
KDPA 152359Z 24008KT 10SM BKN029 OVC043 00/M05 A2990 RMK AO2 T00001050
KDPA 152352Z 23009KT 10SM SCT029 OVC043 00/M05 A2990 RMK AO2 SLP134 60000 T00001050 10000 21011 53003
KDPA 152259Z 23010KT 10SM FEW027 BKN047 OVC055 00/M05 A2989 RMK AO2 T00001050
KDPA 152252Z 24010KT 10SM BKN027 OVC055 00/M05 A2989 RMK AO2 SLP130 T00001050
KDPA 152152Z 23009KT 10SM OVC028 00/M05 A2990 RMK AO2 SLP132 T00001050
KDPA 152133Z 23011KT 10SM OVC029 M01/M05 A2989 RMK AO2 T10061050
KDPA 152052Z 25014G17KT 10SM SCT035 OVC060 M01/M04 A2989 RMK AO2 PK WND 25026/1953 SNB1953E37 SLP132 P0000 60000 T10061039 56008
KDPA 152007Z 25014KT 5SM -SN OVC033 M01/M04 A2989 RMK AO2 PK WND 25026/1953 SNB1953 P0000 T10111039
KDPA 152000Z 25015G26KT 1 3/4SM -SN OVC033 M01/M04 A2989 RMK AO2 PK WND 25026/1953 SNB1953 P0000 T10061044
KDPA 151952Z 25014G27KT 8SM BKN032 OVC042 00/M06 A2989 RMK AO2 PK WND 27027/1947 SLP132 T00001056
KDPA 151852Z 27010KT 10SM OVC040 M01/M07 A2989 RMK AO2 SLP133 T10061067
KDPA 151752Z 28016G23KT 10SM OVC034 M01/M08 A2992 RMK AO2 SLP140 T10111078 11006 21044 58003
KDPA 151652Z 27014G21KT 10SM SCT036 BKN044 M01/M08 A2992 RMK AO2 PK WND 30028/1622 SLP144 T10111083
KDPA 151552Z 28014G21KT 10SM OVC039 M02/M09 A2993 RMK AO2 PK WND 28026/1522 SLP147 T10221089
KDPA 151452Z 30011KT 10SM OVC034 M03/M08 A2993 RMK AO2 SLP145 T10331083 53004
KDPA 151428Z 28011KT 10SM SCT029 OVC036 M03/M08 A2992 RMK AO2 T10331078
KDPA 151352Z 29012KT 10SM BKN023 OVC030 M04/M07 A2992 RMK AO2 SLP143 T10391072
KDPA 151252Z 26010KT 10SM OVC024 M04/M07 A2991 RMK AO2 SLP140 T10391072
KDPA 151152Z 29014KT 10SM OVC021 M04/M07 A2991 RMK AO2 SLP141 T10441072 11039 21072 55010
KDPA 151052Z 23011KT 8SM OVC021 M04/M07 A2991 RMK AO2 SLP139 T10441072
KDPA 150952Z 22009KT 8SM OVC023 M05/M08 A2993 RMK AO2 SLP144 T10501078
KDPA 150918Z 22008KT 8SM OVC026 M06/M08 A2993 RMK AO2 T10561083
KDPA 150909Z 22008KT 8SM SCT024 OVC030 M06/M08 A2994 RMK AO2 T10561083
KDPA 150852Z 22008KT 9SM BKN024 OVC032 M06/M08 A2994 RMK AO2 SLP151 T10561083 56017
KDPA 150752Z 22006KT 10SM OVC029 M06/M09 A2996 RMK AO2 SLP155 T10611094
KDPA 150652Z 23006KT 10SM OVC026 M07/M10 A2998 RMK AO2 SLP164 T10671100
KDPA 150610Z 22006KT 10SM BKN025 OVC095 M07/M10 A2999 RMK AO2 T10721100
KDPA 150552Z 22006KT 10SM OVC095 M07/M11 A3000 RMK AO2 SLP169 T10721106 11067 21100 410281100 58018
KDPA 150452Z 23004KT 10SM BKN100 M09/M12 A3003 RMK AO2 SLP181 T10941122
KDPA 150352Z 22004KT 10SM SCT100 M08/M12 A3004 RMK AO2 SLP186 T10831117
KDPA 150252Z 25003KT 10SM CLR M08/M12 A3005 RMK AO2 SLP189 T10831117 58003
KDPA 150152Z 21004KT 10SM CLR M09/M11 A3006 RMK AO2 SLP193 T10941111
KDPA 150052Z 18003KT 10SM CLR M09/M12 A3006 RMK AO2 SLP195 T10941117
KDPA 142352Z 00000KT 10SM CLR M07/M11 A3006 RMK AO2 SLP193 T10671111 11028 21067 51007
KDPA 142252Z AUTO 28004KT 10SM CLR M06/M11 A3005 RMK AO2 SLP190 T10611111
KDPA 142152Z 29006KT 10SM CLR M05/M12 A3005 RMK AO2 SLP188 T10501117
KDPA 142052Z 30005KT 10SM CLR M04/M12 A3004 RMK AO2 SLP183 T10391122 55003
KDPA 141952Z 33006KT 10SM CLR M03/M12 A3004 RMK AO2 SLP182 T10331117
KDPA 141852Z VRB04KT 10SM CLR M04/M12 A3004 RMK AO2 SLP182 T10391122
KDPA 141752Z 34006KT 10SM CLR M03/M11 A3005 RMK AO2 SLP186 T10331111 11033 21100 58002
KDPA 141652Z 35004KT 10SM CLR M04/M11 A3007 RMK AO2 SLP192 T10441111
KDPA 141552Z 01007KT 10SM CLR M07/M11 A3007 RMK AO2 SLP195 T10671111